createdAt,value
2023-05-08T00:01:41.023Z,8.55
2023-05-08T00:04:09.879Z,9.48
2023-05-08T00:06:38.741Z,9.95
2023-05-08T00:09:08.708Z,9.20
2023-05-08T00:11:37.685Z,8.47
2023-05-08T00:14:07.980Z,10.05
2023-05-08T00:16:36.624Z,7.68
2023-05-08T00:19:05.511Z,8.23
2023-05-08T00:21:34.275Z,9.93
2023-05-08T00:24:04.297Z,10.80
2023-05-08T00:26:33.487Z,11.18
2023-05-08T00:29:05.573Z,8.00
2023-05-08T00:31:35.289Z,8.63
2023-05-08T00:34:05.979Z,8.48
2023-05-08T00:36:35.164Z,7.43
2023-05-08T00:39:04.010Z,9.15
2023-05-08T00:41:32.903Z,8.90
2023-05-08T00:44:01.881Z,8.27
2023-05-08T00:46:29.672Z,8.98
2023-05-08T00:48:57.490Z,9.17
2023-05-08T00:51:50.606Z,8.82
2023-05-08T00:54:43.773Z,12.52
2023-05-08T00:57:13.447Z,10.88
2023-05-08T00:59:42.206Z,9.45
2023-05-08T01:02:10.482Z,8.07
2023-05-08T01:04:38.200Z,10.38
2023-05-08T01:07:05.561Z,9.40
2023-05-08T01:09:32.968Z,8.77
2023-05-08T01:12:16.576Z,9.00
2023-05-08T01:14:52.560Z,9.60
2023-05-08T01:17:49.347Z,10.70
2023-05-08T01:20:20.050Z,9.88
2023-05-08T01:23:06.471Z,8.70
2023-05-08T01:25:55.742Z,8.48
2023-05-08T01:28:32.473Z,8.13
2023-05-08T01:34:28.689Z,10.85
2023-05-08T01:37:01.429Z,8.77
2023-05-08T01:39:46.344Z,7.95
2023-05-08T01:42:13.656Z,8.50
2023-05-08T01:44:52.247Z,9.98
2023-05-08T01:47:21.058Z,7.57
2023-05-08T01:49:49.772Z,7.95
2023-05-08T01:52:21.695Z,11.82
2023-05-08T01:55:06.297Z,8.67
2023-05-08T01:57:34.152Z,8.05
2023-05-08T02:00:02.036Z,10.43
2023-05-08T02:02:38.453Z,8.52
2023-05-08T02:05:08.230Z,9.98
2023-05-08T02:07:38.551Z,7.63
2023-05-08T02:10:07.150Z,13.20
2023-05-08T02:12:35.459Z,10.38
2023-05-08T02:15:04.096Z,8.93
2023-05-08T02:17:32.684Z,8.57
2023-05-08T02:20:01.575Z,6.80
2023-05-08T02:22:29.469Z,7.13
2023-05-08T02:24:58.636Z,6.90
2023-05-08T02:27:28.238Z,9.93
2023-05-08T02:29:58.139Z,9.70
2023-05-08T02:32:26.988Z,10.63
2023-05-08T02:35:03.223Z,8.35
2023-05-08T02:37:32.948Z,10.90
2023-05-08T02:40:02.376Z,8.77
2023-05-08T02:42:32.581Z,13.70
2023-05-08T02:45:00.540Z,7.70
2023-05-08T02:47:38.510Z,7.03
2023-05-08T02:50:21.289Z,9.50
2023-05-08T02:52:54.834Z,6.97
2023-05-08T02:55:40.352Z,9.07
2023-05-08T02:58:19.959Z,8.67
2023-05-08T03:00:56.536Z,9.55
2023-05-08T03:03:26.308Z,10.85
2023-05-08T03:06:00.479Z,6.82
2023-05-08T03:08:32.257Z,10.73
2023-05-08T03:11:03.282Z,7.03
2023-05-08T03:13:35.331Z,9.27
2023-05-08T03:16:05.087Z,9.25
2023-05-08T03:18:36.406Z,9.15
2023-05-08T03:21:06.350Z,8.05
2023-05-08T03:23:36.831Z,8.77
2023-05-08T03:26:06.394Z,10.32
2023-05-08T03:28:36.082Z,10.27
2023-05-08T03:31:05.396Z,7.88
2023-05-08T03:33:33.407Z,9.13
2023-05-08T03:36:00.729Z,7.00
2023-05-08T03:38:28.363Z,9.43
2023-05-08T03:40:55.921Z,9.30
2023-05-08T03:43:23.658Z,10.85
2023-05-08T03:45:51.286Z,8.32
2023-05-08T03:48:18.710Z,8.17
2023-05-08T03:50:46.056Z,8.88
2023-05-08T03:53:13.866Z,8.65
2023-05-08T03:55:42.010Z,10.23
2023-05-08T03:58:19.516Z,7.30
2023-05-08T04:00:50.704Z,11.67
2023-05-08T04:03:21.417Z,8.57
2023-05-08T04:05:54.636Z,8.07
2023-05-08T04:08:30.533Z,9.05
2023-05-08T04:10:58.139Z,7.55
2023-05-08T04:13:31.900Z,8.57
2023-05-08T04:16:12.571Z,8.85
2023-05-08T04:18:44.786Z,7.80
2023-05-08T04:21:16.175Z,8.70
2023-05-08T04:23:44.802Z,8.05
2023-05-08T04:26:15.229Z,10.27
2023-05-08T04:28:44.637Z,9.55
2023-05-08T04:31:12.096Z,8.90
2023-05-08T04:33:39.797Z,9.75
2023-05-08T04:36:11.472Z,9.13
2023-05-08T04:38:39.013Z,9.87
2023-05-08T04:41:07.525Z,8.75
2023-05-08T04:43:35.661Z,10.90
2023-05-08T04:46:04.497Z,8.18
2023-05-08T04:48:33.651Z,8.65
2023-05-08T04:51:01.710Z,8.90
2023-05-08T04:53:29.104Z,10.68
2023-05-08T04:55:58.068Z,7.93
2023-05-08T04:58:26.111Z,7.88
2023-05-08T05:00:54.282Z,8.55
2023-05-08T05:03:23.483Z,7.90
2023-05-08T05:05:57.636Z,9.05
2023-05-08T05:08:26.425Z,9.65
2023-05-08T05:10:54.766Z,13.32
2023-05-08T05:13:22.392Z,8.82
2023-05-08T05:15:53.328Z,10.93
2023-05-08T05:18:21.825Z,7.75
2023-05-08T05:20:50.870Z,8.85
2023-05-08T05:23:18.413Z,9.50
2023-05-08T05:25:45.856Z,9.65
2023-05-08T05:28:14.344Z,8.33
2023-05-08T05:30:42.432Z,7.82
2023-05-08T05:33:09.791Z,8.90
2023-05-08T05:35:38.653Z,8.05
2023-05-08T05:38:07.516Z,8.25
2023-05-08T05:40:34.894Z,9.03
2023-05-08T05:43:02.315Z,8.57
2023-05-08T05:45:32.514Z,8.18
2023-05-08T05:48:01.051Z,9.18
2023-05-08T05:50:29.062Z,8.57
2023-05-08T05:52:57.591Z,10.07
2023-05-08T05:55:26.070Z,6.57
2023-05-08T05:57:53.582Z,7.47
2023-05-08T06:00:21.868Z,7.68
2023-05-08T06:02:53.913Z,7.50
2023-05-08T06:05:21.421Z,7.40
2023-05-08T06:07:48.721Z,6.03
2023-05-08T06:10:16.150Z,7.10
2023-05-08T06:12:43.477Z,8.32
2023-05-08T06:15:11.781Z,6.63
2023-05-08T06:17:39.412Z,8.73
2023-05-08T06:20:07.326Z,6.75
2023-05-08T06:22:34.871Z,6.50
2023-05-08T06:25:03.323Z,6.47
2023-05-08T06:27:32.362Z,6.60
2023-05-08T06:30:01.939Z,7.63
2023-05-08T06:32:30.208Z,7.70
2023-05-08T06:34:58.006Z,7.70
2023-05-08T06:37:25.260Z,7.18
2023-05-08T06:40:03.881Z,8.80
2023-05-08T06:42:37.959Z,7.93
2023-05-08T06:45:06.897Z,7.22
2023-05-08T06:47:34.175Z,9.27
2023-05-08T06:50:01.762Z,6.97
2023-05-08T06:52:29.331Z,9.60
2023-05-08T06:54:56.675Z,9.00
2023-05-08T06:57:26.825Z,11.55
2023-05-08T06:59:54.527Z,9.90
2023-05-08T07:02:21.904Z,7.88
2023-05-08T07:04:49.414Z,7.25
2023-05-08T07:07:17.093Z,9.57
2023-05-08T07:09:44.469Z,11.18
2023-05-08T07:12:11.973Z,8.35
2023-05-08T07:14:39.298Z,7.47
2023-05-08T07:17:09.648Z,8.80
2023-05-08T07:19:37.384Z,6.90
2023-05-08T07:22:05.490Z,12.05
2023-05-08T07:24:33.407Z,7.82
2023-05-08T07:27:02.872Z,7.75
2023-05-08T07:29:30.317Z,13.02
2023-05-08T07:31:57.932Z,12.40
2023-05-08T07:34:26.621Z,8.00
2023-05-08T07:36:56.103Z,7.32
2023-05-08T07:39:23.439Z,7.20
2023-05-08T07:41:50.913Z,10.27
2023-05-08T07:44:18.167Z,8.10
2023-05-08T07:46:45.937Z,6.70
2023-05-08T07:49:14.706Z,6.50
2023-05-08T07:51:42.985Z,8.63
2023-05-08T07:54:10.166Z,8.77
2023-05-08T07:56:37.696Z,7.30
2023-05-08T07:59:06.175Z,6.68
2023-05-08T08:01:35.845Z,6.18
2023-05-08T08:04:04.515Z,6.68
2023-05-08T08:06:32.213Z,5.97
2023-05-08T08:08:59.728Z,11.40
2023-05-08T08:11:27.046Z,6.65
2023-05-08T08:13:54.300Z,8.90
2023-05-08T08:16:25.941Z,8.45
2023-05-08T08:18:53.478Z,8.25
2023-05-08T08:21:20.911Z,8.63
2023-05-08T08:23:48.353Z,11.50
2023-05-08T08:26:15.844Z,8.40
2023-05-08T08:28:47.744Z,7.88
2023-05-08T08:31:16.900Z,7.82
2023-05-08T08:33:47.059Z,7.97
2023-05-08T08:36:14.759Z,9.82
2023-05-08T08:38:42.758Z,12.60
2023-05-08T08:41:12.474Z,8.20
2023-05-08T08:43:43.622Z,10.25
2023-05-08T08:46:12.526Z,7.90
2023-05-08T08:48:42.497Z,6.78
2023-05-08T08:51:13.044Z,7.97
2023-05-08T08:53:44.759Z,10.82
2023-05-08T08:56:12.271Z,8.95
2023-05-08T08:58:47.232Z,7.40
2023-05-08T09:01:16.799Z,10.35
2023-05-08T09:03:44.942Z,10.75
2023-05-08T09:06:14.360Z,9.60
2023-05-08T09:08:41.995Z,8.02
2023-05-08T09:11:09.314Z,7.90
2023-05-08T09:13:36.718Z,10.43
2023-05-08T09:16:04.390Z,10.20
2023-05-08T09:18:32.003Z,18.23
2023-05-08T09:21:01.757Z,8.95
2023-05-08T09:23:29.299Z,10.37
2023-05-08T09:25:57.250Z,9.57
2023-05-08T09:28:25.774Z,9.48
2023-05-08T09:30:54.630Z,8.27
2023-05-08T09:33:24.250Z,9.02
2023-05-08T09:35:53.876Z,8.67
2023-05-08T09:38:34.122Z,8.25
2023-05-08T09:41:10.951Z,8.57
2023-05-08T09:43:43.355Z,11.32
2023-05-08T09:46:23.554Z,11.02
2023-05-08T09:48:52.698Z,10.30
2023-05-08T09:51:20.715Z,8.27
2023-05-08T09:53:51.414Z,8.40
2023-05-08T09:56:32.230Z,10.52
2023-05-08T09:58:59.967Z,10.98
2023-05-08T10:01:31.409Z,9.63
2023-05-08T10:03:59.690Z,11.30
2023-05-08T10:06:29.682Z,11.18
2023-05-08T10:09:14.148Z,14.48
2023-05-08T10:11:42.120Z,10.18
2023-05-08T10:14:09.483Z,8.13
2023-05-08T10:16:40.306Z,13.98
2023-05-08T10:19:11.810Z,10.55
2023-05-08T10:21:43.016Z,11.02
2023-05-08T10:24:13.909Z,7.75
2023-05-08T10:26:53.654Z,10.57
2023-05-08T10:29:34.570Z,7.15
2023-05-08T10:32:03.318Z,8.30
2023-05-08T10:34:32.733Z,7.20
2023-05-08T10:37:00.240Z,7.53
2023-05-08T10:39:28.418Z,7.53
2023-05-08T10:41:56.004Z,7.78
2023-05-08T10:44:23.968Z,7.10
2023-05-08T10:47:20.824Z,7.50
2023-05-08T10:50:17.024Z,6.95
2023-05-08T10:53:20.302Z,7.70
2023-05-08T10:55:51.847Z,6.80
2023-05-08T10:58:32.311Z,7.43
2023-05-08T11:01:00.896Z,6.57
2023-05-08T11:03:32.659Z,13.23
2023-05-08T11:06:01.567Z,10.87
2023-05-08T11:08:29.754Z,7.13
2023-05-08T11:11:00.081Z,8.73
2023-05-08T11:13:28.981Z,15.40
2023-05-08T11:15:58.636Z,6.25
2023-05-08T11:18:30.154Z,8.80
2023-05-08T11:21:07.315Z,9.02
2023-05-08T11:23:35.342Z,9.23
2023-05-08T11:26:06.530Z,7.70
2023-05-08T11:28:57.098Z,9.15
2023-05-08T11:31:24.563Z,7.90
2023-05-08T11:33:55.828Z,7.88
2023-05-08T11:36:24.899Z,6.70
2023-05-08T11:39:09.358Z,8.00
2023-05-08T11:41:36.962Z,8.45
2023-05-08T11:44:14.391Z,7.57
2023-05-08T11:46:51.281Z,12.68
2023-05-08T11:49:24.667Z,10.20
2023-05-08T11:51:55.909Z,6.78
2023-05-08T11:54:23.319Z,7.55
2023-05-08T11:56:51.922Z,7.20
2023-05-08T11:59:19.786Z,7.65
2023-05-08T12:04:21.257Z,9.90
2023-05-08T12:06:51.138Z,8.02
2023-05-08T12:09:19.526Z,9.70
2023-05-08T12:11:47.202Z,7.53
2023-05-08T12:14:17.748Z,6.30
2023-05-08T12:19:32.020Z,10.13
2023-05-08T12:21:59.654Z,6.73
2023-05-08T12:24:27.127Z,9.05
2023-05-08T12:26:55.900Z,9.40
2023-05-08T12:29:27.314Z,9.82
2023-05-08T12:31:54.804Z,14.60
2023-05-08T12:34:22.181Z,6.60
2023-05-08T12:36:49.858Z,7.72
2023-05-08T12:39:18.450Z,7.45
2023-05-08T12:41:52.873Z,7.45
2023-05-08T12:44:23.891Z,7.80
2023-05-08T12:46:52.097Z,8.90
2023-05-08T12:49:25.700Z,7.25
2023-05-08T12:52:00.565Z,8.98
2023-05-08T12:54:38.115Z,6.60
2023-05-08T12:57:12.268Z,8.63
2023-05-08T12:59:40.003Z,11.60
2023-05-08T13:02:16.784Z,6.60
2023-05-08T13:04:44.604Z,7.65
2023-05-08T13:07:12.292Z,7.65
2023-05-08T13:09:40.790Z,7.15
2023-05-08T13:12:09.900Z,8.87
2023-05-08T13:14:37.121Z,9.75
2023-05-08T13:17:07.650Z,8.68
2023-05-08T13:19:35.927Z,9.10
2023-05-08T13:22:04.217Z,6.80
2023-05-08T13:24:31.549Z,9.23
2023-05-08T13:26:58.901Z,8.25
2023-05-08T13:29:26.414Z,9.55
2023-05-08T13:31:53.785Z,9.18
2023-05-08T13:34:21.120Z,7.53
2023-05-08T13:36:48.503Z,7.93
2023-05-08T13:39:15.964Z,6.63
2023-05-08T13:41:43.204Z,7.43
2023-05-08T13:44:10.440Z,8.63
2023-05-08T13:46:39.867Z,8.20
2023-05-08T13:49:07.212Z,9.33
2023-05-08T13:51:34.557Z,6.95
2023-05-08T13:54:01.985Z,7.93
2023-05-08T13:56:29.327Z,8.57
2023-05-08T13:58:56.648Z,8.50
2023-05-08T14:01:28.173Z,9.73
2023-05-08T14:03:56.753Z,9.05
2023-05-08T14:06:27.266Z,10.70
2023-05-08T14:08:56.260Z,13.07
2023-05-08T14:11:24.600Z,8.32
2023-05-08T14:13:52.094Z,10.97
2023-05-08T14:16:19.500Z,8.13
2023-05-08T14:18:46.896Z,8.30
2023-05-08T14:21:15.993Z,10.57
2023-05-08T14:23:46.440Z,10.05
2023-05-08T14:26:13.727Z,11.80
2023-05-08T14:28:43.504Z,8.75
2023-05-08T14:31:11.829Z,8.30
2023-05-08T14:33:39.662Z,11.98
2023-05-08T14:36:07.290Z,10.27
2023-05-08T14:38:37.693Z,7.10
2023-05-08T14:41:05.184Z,10.60
2023-05-08T14:43:32.840Z,9.57
2023-05-08T14:46:00.364Z,7.47
2023-05-08T14:48:31.070Z,8.82
2023-05-08T14:50:58.506Z,8.70
2023-05-08T14:53:26.289Z,7.90
2023-05-08T14:55:53.720Z,7.72
2023-05-08T14:58:21.346Z,9.05
2023-05-08T15:00:48.595Z,10.50
2023-05-08T15:03:16.169Z,9.83
2023-05-08T15:05:44.868Z,8.57
2023-05-08T15:08:13.540Z,8.07
2023-05-08T15:10:40.975Z,9.85
2023-05-08T15:13:08.315Z,9.48
2023-05-08T15:15:35.662Z,6.60
2023-05-08T15:18:03.153Z,8.65
2023-05-08T15:20:30.561Z,10.75
2023-05-08T15:22:57.860Z,10.27
2023-05-08T15:25:26.497Z,6.32
2023-05-08T15:27:53.800Z,8.03
2023-05-08T15:30:21.476Z,7.82
2023-05-08T15:32:49.752Z,11.93
2023-05-08T15:35:17.338Z,7.65
2023-05-08T15:37:44.977Z,8.25
2023-05-08T15:40:12.732Z,7.93
2023-05-08T15:42:40.393Z,9.63
2023-05-08T15:45:08.500Z,8.85
2023-05-08T15:47:36.215Z,9.60
2023-05-08T15:50:04.963Z,7.15
2023-05-08T15:52:32.242Z,8.73
2023-05-08T15:55:00.909Z,8.65
2023-05-08T15:57:30.081Z,10.15
2023-05-08T15:59:58.617Z,7.43
2023-05-08T16:02:26.519Z,8.35
2023-05-08T16:05:01.236Z,10.47
2023-05-08T16:07:29.659Z,7.72
2023-05-08T16:10:00.255Z,8.13
2023-05-08T16:12:28.429Z,9.30
2023-05-08T16:14:56.107Z,11.40
2023-05-08T16:17:23.951Z,12.20
2023-05-08T16:19:51.684Z,12.52
2023-05-08T16:22:24.849Z,9.30
2023-05-08T16:24:55.319Z,9.73
2023-05-08T16:27:22.886Z,14.68
2023-05-08T16:29:50.484Z,21.10
2023-05-08T16:32:17.891Z,17.50
2023-05-08T16:34:48.369Z,13.25
2023-05-08T16:37:16.077Z,9.65
2023-05-08T16:39:43.305Z,11.50
2023-05-08T16:42:10.839Z,9.77
2023-05-08T16:44:40.108Z,8.40
2023-05-08T16:47:07.470Z,19.08
2023-05-08T16:49:36.705Z,11.15
2023-05-08T16:52:06.301Z,10.70
2023-05-08T16:54:33.808Z,12.77
2023-05-08T16:59:49.284Z,9.90
2023-05-08T17:02:19.340Z,8.07
2023-05-08T17:04:49.859Z,11.27
2023-05-08T17:07:20.080Z,8.60
2023-05-08T17:09:53.160Z,9.00
2023-05-08T17:12:20.282Z,10.23
2023-05-08T17:14:50.073Z,10.27
2023-05-08T17:17:19.894Z,9.55
2023-05-08T17:19:50.645Z,10.03
2023-05-08T17:22:26.593Z,9.48
2023-05-08T17:24:56.924Z,10.63
2023-05-08T17:27:25.244Z,7.35
2023-05-08T17:29:56.821Z,10.00
2023-05-08T17:32:26.802Z,7.80
2023-05-08T17:34:54.126Z,7.90
2023-05-08T17:37:27.898Z,10.70
2023-05-08T17:39:55.070Z,8.90
2023-05-08T17:42:22.430Z,8.75
2023-05-08T17:44:52.801Z,11.17
2023-05-08T17:47:20.167Z,10.57
2023-05-08T17:49:48.492Z,11.68
2023-05-08T17:52:16.274Z,9.82
2023-05-08T17:54:47.334Z,9.77
2023-05-08T17:57:14.669Z,8.97
2023-05-08T17:59:41.953Z,8.88
2023-05-08T18:02:09.434Z,10.75
2023-05-08T18:04:36.841Z,8.38
2023-05-08T18:07:04.523Z,9.48
2023-05-08T18:09:32.087Z,8.73
2023-05-08T18:12:02.769Z,14.00
2023-05-08T18:14:31.725Z,13.93
2023-05-08T18:17:00.500Z,14.13
2023-05-08T18:19:28.788Z,10.73
2023-05-08T18:21:56.044Z,10.53
2023-05-08T18:24:24.374Z,8.75
2023-05-08T18:26:52.692Z,12.27
2023-05-08T18:29:20.031Z,10.45
2023-05-08T18:35:12.464Z,9.33
2023-05-08T18:37:40.027Z,9.32
2023-05-08T18:40:09.275Z,11.13
2023-05-08T18:42:36.722Z,9.32
2023-05-08T18:45:06.463Z,10.60
2023-05-08T18:47:33.876Z,10.93
2023-05-08T18:50:01.376Z,15.90
2023-05-08T18:52:29.771Z,8.52
2023-05-08T18:54:57.217Z,9.93
2023-05-08T18:57:25.749Z,13.27
2023-05-08T18:59:53.366Z,13.00
2023-05-08T19:02:20.846Z,9.38
2023-05-08T19:04:48.308Z,8.93
2023-05-08T19:07:16.766Z,8.73
2023-05-08T19:09:46.197Z,10.43
2023-05-08T19:12:16.067Z,10.80
2023-05-08T19:17:32.395Z,8.80
2023-05-08T19:20:00.743Z,9.25
2023-05-08T19:22:27.836Z,11.50
2023-05-08T19:24:55.206Z,9.50
2023-05-08T19:27:22.299Z,7.45
2023-05-08T19:29:49.497Z,11.05
2023-05-08T19:32:16.630Z,9.35
2023-05-08T19:34:43.720Z,11.90
2023-05-08T19:37:10.809Z,11.83
2023-05-08T19:39:37.942Z,18.95
2023-05-08T19:42:05.486Z,16.45
2023-05-08T19:44:33.262Z,14.27
2023-05-08T19:47:03.062Z,12.90
2023-05-08T19:49:31.000Z,14.20
2023-05-08T19:51:58.030Z,13.02
2023-05-08T19:54:25.390Z,12.23
2023-05-08T19:56:52.633Z,10.50
2023-05-08T19:59:42.193Z,12.77
2023-05-08T20:02:09.760Z,10.00
2023-05-08T20:04:54.542Z,14.38
2023-05-08T20:07:24.907Z,12.43
2023-05-08T20:12:43.387Z,15.85
2023-05-08T20:15:13.528Z,12.97
2023-05-08T20:17:44.092Z,14.30
2023-05-08T20:20:12.022Z,16.38
2023-05-08T20:22:39.408Z,13.07
2023-05-08T20:25:07.172Z,14.98
2023-05-08T20:27:35.436Z,15.57
2023-05-08T20:30:02.998Z,22.25
2023-05-08T20:32:30.454Z,21.55
2023-05-08T20:35:00.710Z,16.58
2023-05-08T20:37:28.013Z,17.50
2023-05-08T20:39:55.416Z,18.13
2023-05-08T20:42:22.947Z,17.70
2023-05-08T20:44:51.512Z,18.35
2023-05-08T20:47:18.981Z,17.67
2023-05-08T20:49:48.010Z,17.65
2023-05-08T20:52:15.345Z,17.93
2023-05-08T20:54:44.879Z,18.02
2023-05-08T20:57:13.394Z,15.05
2023-05-08T20:59:46.517Z,21.00
2023-05-08T21:02:15.258Z,14.50
2023-05-08T21:04:44.696Z,15.93
2023-05-08T21:07:12.275Z,12.57
2023-05-08T21:09:39.444Z,10.30
2023-05-08T21:12:06.942Z,12.07
2023-05-08T21:14:37.756Z,15.02
2023-05-08T21:17:05.730Z,13.40
2023-05-08T21:19:33.316Z,12.40
2023-05-08T21:22:05.401Z,12.82
2023-05-08T21:24:32.818Z,17.23
2023-05-08T21:27:03.453Z,18.58
2023-05-08T21:29:30.918Z,20.17
2023-05-08T21:32:03.885Z,34.10
2023-05-08T21:34:31.787Z,27.75
2023-05-08T21:37:00.240Z,27.08
2023-05-08T21:39:27.827Z,24.77
2023-05-08T21:41:55.272Z,28.47
2023-05-08T21:44:24.481Z,37.50
2023-05-08T21:46:51.954Z,53.95
2023-05-08T21:49:19.535Z,214.82
2023-05-08T21:51:49.278Z,167.05
2023-05-08T21:54:16.874Z,314.80
2023-05-08T21:56:44.511Z,203.10
2023-05-08T21:59:25.709Z,275.20
2023-05-08T22:01:53.753Z,215.93
2023-05-08T22:04:21.963Z,172.32
2023-05-08T22:06:50.858Z,138.10
2023-05-08T22:09:21.680Z,71.68
2023-05-08T22:11:52.331Z,297.00
2023-05-08T22:14:20.001Z,92.25
2023-05-08T22:16:47.968Z,239.98
2023-05-08T22:19:15.708Z,656.80
2023-05-08T22:21:48.134Z,460.35
2023-05-08T22:24:27.731Z,108.50
2023-05-08T22:26:57.516Z,49.28
2023-05-08T22:29:30.802Z,81.07
2023-05-08T22:32:01.385Z,47.60
2023-05-08T22:34:30.047Z,40.90
2023-05-08T22:36:57.324Z,37.97
2023-05-08T22:39:27.818Z,39.80
2023-05-08T22:42:00.596Z,28.85
2023-05-08T22:44:41.651Z,36.67
2023-05-08T22:47:12.873Z,33.40
2023-05-08T22:49:47.072Z,28.25
2023-05-08T22:52:32.819Z,23.98
2023-05-08T22:55:07.079Z,23.45
2023-05-08T22:57:40.702Z,22.83
2023-05-08T23:00:08.462Z,21.02
2023-05-08T23:02:40.690Z,21.45
2023-05-08T23:05:13.071Z,19.77
2023-05-08T23:07:41.841Z,20.17
2023-05-08T23:10:12.770Z,19.13
2023-05-08T23:12:44.923Z,20.80
2023-05-08T23:15:15.216Z,20.50
2023-05-08T23:17:42.627Z,22.27
2023-05-08T23:20:10.661Z,22.10
2023-05-08T23:22:41.287Z,24.03
2023-05-08T23:25:17.551Z,27.52
2023-05-08T23:27:53.055Z,24.80
2023-05-08T23:30:25.234Z,23.95
2023-05-08T23:32:55.133Z,24.55
2023-05-08T23:35:25.226Z,21.50
2023-05-08T23:37:55.177Z,22.50
2023-05-08T23:40:22.596Z,22.05
2023-05-08T23:42:52.383Z,22.23
2023-05-08T23:45:21.113Z,20.40
2023-05-08T23:47:49.927Z,21.87
2023-05-08T23:50:28.306Z,21.65
2023-05-08T23:53:07.161Z,20.17
2023-05-08T23:55:36.998Z,21.52
2023-05-08T23:58:04.836Z,35.88
